sensor_id;sensor_type;location;lat;lon;timestamp;P1;durP1;ratioP1;P2;durP2;ratioP2
1533;SDS011;760;48.822;9.304;2022-07-21T04:03:21;12.40;;;10.40;;
1533;SDS011;760;48.822;9.304;2022-07-21T04:05:46;14.87;;;12.00;;
1533;SDS011;760;48.822;9.304;2022-07-21T04:08:12;14.33;;;9.03;;
1533;SDS011;760;48.822;9.304;2022-07-21T04:10:39;13.33;;;8.77;;
1533;SDS011;760;48.822;9.304;2022-07-21T04:13:07;10.23;;;8.43;;
1533;SDS011;760;48.822;9.304;2022-07-21T04:15:36;12.50;;;10.37;;
1533;SDS011;760;48.822;9.304;2022-07-21T04:18:03;11.60;;;10.00;;
1533;SDS011;760;48.822;9.304;2022-07-21T04:20:30;11.47;;;9.60;;
1533;SDS011;760;48.822;9.304;2022-07-21T04:22:56;12.67;;;9.80;;
1533;SDS011;760;48.822;9.304;2022-07-21T04:25:21;11.97;;;10.53;;
1533;SDS011;760;48.822;9.304;2022-07-21T04:27:48;14.20;;;10.07;;
1533;SDS011;760;48.822;9.304;2022-07-21T04:30:16;13.20;;;11.13;;
1533;SDS011;760;48.822;9.304;2022-07-21T04:32:46;11.90;;;10.30;;
1533;SDS011;760;48.822;9.304;2022-07-21T04:35:11;14.00;;;10.73;;
1533;SDS011;760;48.822;9.304;2022-07-21T04:37:38;13.90;;;10.97;;
1533;SDS011;760;48.822;9.304;2022-07-21T04:40:05;13.40;;;11.50;;
1533;SDS011;760;48.822;9.304;2022-07-21T04:42:32;13.20;;;10.17;;
1533;SDS011;760;48.822;9.304;2022-07-21T04:44:58;12.47;;;10.23;;
1533;SDS011;760;48.822;9.304;2022-07-21T04:47:24;11.03;;;9.80;;
1533;SDS011;760;48.822;9.304;2022-07-21T04:49:49;12.10;;;10.37;;
1533;SDS011;760;48.822;9.304;2022-07-21T04:52:15;13.40;;;10.17;;
1533;SDS011;760;48.822;9.304;2022-07-21T04:54:41;11.77;;;9.90;;
1533;SDS011;760;48.822;9.304;2022-07-21T04:57:06;15.77;;;10.70;;
1533;SDS011;760;48.822;9.304;2022-07-21T04:59:32;15.33;;;12.40;;
1533;SDS011;760;48.822;9.304;2022-07-21T05:01:59;14.80;;;10.60;;
1533;SDS011;760;48.822;9.304;2022-07-21T05:04:25;12.17;;;9.93;;
1533;SDS011;760;48.822;9.304;2022-07-21T05:06:51;11.97;;;9.80;;
1533;SDS011;760;48.822;9.304;2022-07-21T05:09:17;14.30;;;9.50;;
1533;SDS011;760;48.822;9.304;2022-07-21T05:11:43;12.23;;;10.93;;
1533;SDS011;760;48.822;9.304;2022-07-21T05:14:09;10.53;;;9.50;;
1533;SDS011;760;48.822;9.304;2022-07-21T05:16:34;11.07;;;9.23;;
1533;SDS011;760;48.822;9.304;2022-07-21T05:19:00;14.40;;;11.40;;
1533;SDS011;760;48.822;9.304;2022-07-21T05:21:26;13.93;;;11.97;;
1533;SDS011;760;48.822;9.304;2022-07-21T05:23:51;11.57;;;10.37;;
1533;SDS011;760;48.822;9.304;2022-07-21T05:26:17;11.77;;;8.77;;
1533;SDS011;760;48.822;9.304;2022-07-21T05:28:42;11.80;;;9.70;;
1533;SDS011;760;48.822;9.304;2022-07-21T05:31:08;14.10;;;10.73;;
1533;SDS011;760;48.822;9.304;2022-07-21T05:33:35;13.23;;;11.50;;
1533;SDS011;760;48.822;9.304;2022-07-21T05:36:02;14.00;;;10.47;;
1533;SDS011;760;48.822;9.304;2022-07-21T05:38:28;15.77;;;11.00;;
1533;SDS011;760;48.822;9.304;2022-07-21T05:40:54;12.40;;;10.60;;
1533;SDS011;760;48.822;9.304;2022-07-21T05:43:19;11.07;;;9.87;;
1533;SDS011;760;48.822;9.304;2022-07-21T05:45:45;15.57;;;10.67;;
1533;SDS011;760;48.822;9.304;2022-07-21T05:48:11;11.80;;;9.63;;
1533;SDS011;760;48.822;9.304;2022-07-21T05:50:36;10.80;;;9.70;;
1533;SDS011;760;48.822;9.304;2022-07-21T05:53:02;10.20;;;9.20;;
1533;SDS011;760;48.822;9.304;2022-07-21T05:55:28;11.63;;;9.87;;
1533;SDS011;760;48.822;9.304;2022-07-21T05:57:53;11.80;;;10.60;;
1533;SDS011;760;48.822;9.304;2022-07-21T06:00:19;9.73;;;8.70;;
1533;SDS011;760;48.822;9.304;2022-07-21T06:02:44;10.90;;;9.77;;
1533;SDS011;760;48.822;9.304;2022-07-21T06:05:11;11.23;;;9.20;;
1533;SDS011;760;48.822;9.304;2022-07-21T06:07:37;10.97;;;9.73;;
1533;SDS011;760;48.822;9.304;2022-07-21T06:10:04;12.57;;;11.27;;
1533;SDS011;760;48.822;9.304;2022-07-21T06:12:29;14.40;;;11.80;;
1533;SDS011;760;48.822;9.304;2022-07-21T06:14:55;10.77;;;9.70;;
1533;SDS011;760;48.822;9.304;2022-07-21T06:17:21;9.63;;;8.63;;
1533;SDS011;760;48.822;9.304;2022-07-21T06:19:47;9.50;;;8.50;;
1533;SDS011;760;48.822;9.304;2022-07-21T06:22:13;9.57;;;8.57;;
1533;SDS011;760;48.822;9.304;2022-07-21T06:24:38;13.03;;;11.70;;
1533;SDS011;760;48.822;9.304;2022-07-21T06:27:04;11.00;;;8.90;;
1533;SDS011;760;48.822;9.304;2022-07-21T06:29:30;11.23;;;10.13;;
1533;SDS011;760;48.822;9.304;2022-07-21T06:31:55;10.97;;;9.87;;
1533;SDS011;760;48.822;9.304;2022-07-21T06:34:21;9.60;;;8.60;;
1533;SDS011;760;48.822;9.304;2022-07-21T06:36:47;11.20;;;9.30;;
1533;SDS011;760;48.822;9.304;2022-07-21T06:39:12;9.80;;;8.50;;
1533;SDS011;760;48.822;9.304;2022-07-21T06:41:38;10.30;;;7.80;;
1533;SDS011;760;48.822;9.304;2022-07-21T06:44:05;12.10;;;8.63;;
1533;SDS011;760;48.822;9.304;2022-07-21T06:46:31;8.57;;;7.77;;
1533;SDS011;760;48.822;9.304;2022-07-21T06:48:58;9.70;;;8.73;;
1533;SDS011;760;48.822;9.304;2022-07-21T06:51:24;8.40;;;7.40;;
1533;SDS011;760;48.822;9.304;2022-07-21T06:53:49;8.97;;;7.73;;
1533;SDS011;760;48.822;9.304;2022-07-21T06:56:16;10.03;;;7.97;;
1533;SDS011;760;48.822;9.304;2022-07-21T06:58:42;10.70;;;7.07;;
1533;SDS011;760;48.822;9.304;2022-07-21T07:01:08;8.03;;;7.30;;
1533;SDS011;760;48.822;9.304;2022-07-21T07:03:34;9.83;;;8.00;;
1533;SDS011;760;48.822;9.304;2022-07-21T07:05:59;16.73;;;12.50;;
1533;SDS011;760;48.822;9.304;2022-07-21T07:08:25;9.70;;;8.70;;
1533;SDS011;760;48.822;9.304;2022-07-21T07:10:51;8.30;;;7.60;;
1533;SDS011;760;48.822;9.304;2022-07-21T07:13:17;7.47;;;6.77;;
1533;SDS011;760;48.822;9.304;2022-07-21T07:15:43;7.20;;;6.50;;
1533;SDS011;760;48.822;9.304;2022-07-21T07:18:09;8.20;;;7.40;;
1533;SDS011;760;48.822;9.304;2022-07-21T07:20:35;8.77;;;6.60;;
1533;SDS011;760;48.822;9.304;2022-07-21T07:23:01;6.53;;;5.70;;
1533;SDS011;760;48.822;9.304;2022-07-21T07:25:27;8.27;;;7.60;;
1533;SDS011;760;48.822;9.304;2022-07-21T07:27:53;7.03;;;6.33;;
1533;SDS011;760;48.822;9.304;2022-07-21T07:30:20;7.80;;;7.13;;
1533;SDS011;760;48.822;9.304;2022-07-21T07:32:45;7.70;;;6.73;;
1533;SDS011;760;48.822;9.304;2022-07-21T07:35:14;8.10;;;7.37;;
1533;SDS011;760;48.822;9.304;2022-07-21T07:37:41;8.20;;;7.27;;
1533;SDS011;760;48.822;9.304;2022-07-21T07:40:09;7.33;;;6.63;;
1533;SDS011;760;48.822;9.304;2022-07-21T07:42:39;6.50;;;6.00;;
1533;SDS011;760;48.822;9.304;2022-07-21T07:45:05;6.63;;;6.00;;
1533;SDS011;760;48.822;9.304;2022-07-21T07:47:32;6.33;;;5.73;;
1533;SDS011;760;48.822;9.304;2022-07-21T07:49:58;6.03;;;5.53;;
1533;SDS011;760;48.822;9.304;2022-07-21T07:52:24;7.30;;;6.63;;
1533;SDS011;760;48.822;9.304;2022-07-21T07:54:50;10.13;;;9.13;;
1533;SDS011;760;48.822;9.304;2022-07-21T07:57:16;7.77;;;6.93;;
1533;SDS011;760;48.822;9.304;2022-07-21T07:59:42;7.00;;;6.40;;
1533;SDS011;760;48.822;9.304;2022-07-21T08:02:07;6.97;;;6.37;;
1533;SDS011;760;48.822;9.304;2022-07-21T08:04:33;6.43;;;5.93;;
1533;SDS011;760;48.822;9.304;2022-07-21T08:07:00;7.30;;;6.80;;
1533;SDS011;760;48.822;9.304;2022-07-21T08:09:26;6.70;;;6.20;;
1533;SDS011;760;48.822;9.304;2022-07-21T08:11:52;6.33;;;5.63;;
1533;SDS011;760;48.822;9.304;2022-07-21T08:14:19;6.30;;;5.87;;
1533;SDS011;760;48.822;9.304;2022-07-21T08:16:44;7.97;;;7.37;;
1533;SDS011;760;48.822;9.304;2022-07-21T08:19:11;7.00;;;6.40;;
1533;SDS011;760;48.822;9.304;2022-07-21T08:21:37;6.47;;;5.97;;
1533;SDS011;760;48.822;9.304;2022-07-21T08:24:03;6.20;;;5.70;;
1533;SDS011;760;48.822;9.304;2022-07-21T08:26:29;6.53;;;6.03;;
1533;SDS011;760;48.822;9.304;2022-07-21T08:28:55;7.70;;;7.10;;
1533;SDS011;760;48.822;9.304;2022-07-21T08:31:22;6.97;;;6.37;;
1533;SDS011;760;48.822;9.304;2022-07-21T08:33:49;6.43;;;5.93;;
1533;SDS011;760;48.822;9.304;2022-07-21T08:36:15;6.90;;;6.40;;
1533;SDS011;760;48.822;9.304;2022-07-21T08:38:42;7.13;;;6.53;;
1533;SDS011;760;48.822;9.304;2022-07-21T08:41:08;5.30;;;4.73;;
1533;SDS011;760;48.822;9.304;2022-07-21T08:43:34;6.43;;;5.93;;
1533;SDS011;760;48.822;9.304;2022-07-21T08:46:00;6.67;;;5.90;;
1533;SDS011;760;48.822;9.304;2022-07-21T08:48:27;6.83;;;5.60;;
1533;SDS011;760;48.822;9.304;2022-07-21T08:50:54;6.83;;;6.27;;
1533;SDS011;760;48.822;9.304;2022-07-21T08:53:21;6.80;;;6.20;;
1533;SDS011;760;48.822;9.304;2022-07-21T08:55:47;7.97;;;6.80;;
1533;SDS011;760;48.822;9.304;2022-07-21T08:58:13;6.13;;;5.53;;
1533;SDS011;760;48.822;9.304;2022-07-21T09:00:40;6.30;;;5.70;;
1533;SDS011;760;48.822;9.304;2022-07-21T09:03:09;6.23;;;5.63;;
1533;SDS011;760;48.822;9.304;2022-07-21T09:05:59;5.90;;;5.40;;
1533;SDS011;760;48.822;9.304;2022-07-21T09:08:29;6.67;;;6.10;;
1533;SDS011;760;48.822;9.304;2022-07-21T09:13:49;9.60;;;6.70;;
1533;SDS011;760;48.822;9.304;2022-07-21T09:16:39;6.03;;;5.57;;
1533;SDS011;760;48.822;9.304;2022-07-21T09:19:05;6.33;;;5.73;;
1533;SDS011;760;48.822;9.304;2022-07-21T09:21:39;5.80;;;5.37;;
1533;SDS011;760;48.822;9.304;2022-07-21T09:24:15;6.70;;;6.20;;
1533;SDS011;760;48.822;9.304;2022-07-21T09:26:57;6.50;;;5.90;;
1533;SDS011;760;48.822;9.304;2022-07-21T09:29:24;5.73;;;5.17;;
1533;SDS011;760;48.822;9.304;2022-07-21T09:31:49;6.37;;;5.87;;
1533;SDS011;760;48.822;9.304;2022-07-21T09:34:15;6.03;;;5.63;;
1533;SDS011;760;48.822;9.304;2022-07-21T09:37:05;5.97;;;5.57;;
1533;SDS011;760;48.822;9.304;2022-07-21T09:39:46;5.77;;;5.30;;
1533;SDS011;760;48.822;9.304;2022-07-21T09:44:41;6.90;;;6.37;;
1533;SDS011;760;48.822;9.304;2022-07-21T09:47:09;6.20;;;5.70;;
1533;SDS011;760;48.822;9.304;2022-07-21T09:49:39;5.50;;;5.10;;
1533;SDS011;760;48.822;9.304;2022-07-21T09:54:44;5.73;;;5.30;;
1533;SDS011;760;48.822;9.304;2022-07-21T09:57:10;5.47;;;5.03;;
1533;SDS011;760;48.822;9.304;2022-07-21T09:59:37;5.80;;;5.40;;
1533;SDS011;760;48.822;9.304;2022-07-21T10:02:04;5.33;;;4.83;;
1533;SDS011;760;48.822;9.304;2022-07-21T10:04:30;5.50;;;4.83;;
1533;SDS011;760;48.822;9.304;2022-07-21T10:06:59;5.43;;;5.00;;
1533;SDS011;760;48.822;9.304;2022-07-21T10:09:26;7.23;;;5.07;;
1533;SDS011;760;48.822;9.304;2022-07-21T10:11:52;4.80;;;4.30;;
1533;SDS011;760;48.822;9.304;2022-07-21T10:14:19;5.57;;;5.07;;
1533;SDS011;760;48.822;9.304;2022-07-21T10:16:45;4.50;;;4.20;;
1533;SDS011;760;48.822;9.304;2022-07-21T10:19:21;4.40;;;4.10;;
1533;SDS011;760;48.822;9.304;2022-07-21T10:24:37;4.93;;;4.53;;
1533;SDS011;760;48.822;9.304;2022-07-21T10:29:50;6.83;;;4.83;;
1533;SDS011;760;48.822;9.304;2022-07-21T10:32:24;4.90;;;4.50;;
1533;SDS011;760;48.822;9.304;2022-07-21T10:34:53;5.07;;;4.67;;
1533;SDS011;760;48.822;9.304;2022-07-21T10:40:03;5.90;;;5.40;;
1533;SDS011;760;48.822;9.304;2022-07-21T10:42:31;5.67;;;5.17;;
1533;SDS011;760;48.822;9.304;2022-07-21T10:44:56;5.50;;;5.00;;
1533;SDS011;760;48.822;9.304;2022-07-21T10:47:23;5.93;;;5.43;;
1533;SDS011;760;48.822;9.304;2022-07-21T10:49:56;4.87;;;4.47;;
1533;SDS011;760;48.822;9.304;2022-07-21T10:57:36;5.43;;;4.93;;
1533;SDS011;760;48.822;9.304;2022-07-21T11:00:16;5.73;;;5.23;;
1533;SDS011;760;48.822;9.304;2022-07-21T11:11:17;4.87;;;4.53;;
1533;SDS011;760;48.822;9.304;2022-07-21T11:13:57;4.83;;;4.43;;
1533;SDS011;760;48.822;9.304;2022-07-21T11:22:06;4.50;;;4.20;;
1533;SDS011;760;48.822;9.304;2022-07-21T11:25:04;4.80;;;4.40;;
1533;SDS011;760;48.822;9.304;2022-07-21T11:27:30;4.53;;;4.17;;
1533;SDS011;760;48.822;9.304;2022-07-21T11:30:01;5.57;;;5.10;;
1533;SDS011;760;48.822;9.304;2022-07-21T11:32:29;5.43;;;4.93;;
1533;SDS011;760;48.822;9.304;2022-07-21T11:34:56;5.33;;;4.90;;
1533;SDS011;760;48.822;9.304;2022-07-21T11:37:27;4.77;;;4.30;;
1533;SDS011;760;48.822;9.304;2022-07-21T11:39:55;4.57;;;4.27;;
1533;SDS011;760;48.822;9.304;2022-07-21T11:42:21;4.17;;;3.80;;
1533;SDS011;760;48.822;9.304;2022-07-21T11:44:47;5.60;;;5.10;;
1533;SDS011;760;48.822;9.304;2022-07-21T11:47:14;6.80;;;4.83;;
1533;SDS011;760;48.822;9.304;2022-07-21T11:49:41;4.47;;;4.10;;
1533;SDS011;760;48.822;9.304;2022-07-21T11:52:08;4.20;;;3.80;;
1533;SDS011;760;48.822;9.304;2022-07-21T11:54:37;3.87;;;3.57;;
1533;SDS011;760;48.822;9.304;2022-07-21T11:57:14;4.10;;;3.80;;
1533;SDS011;760;48.822;9.304;2022-07-21T11:59:42;4.40;;;4.00;;
1533;SDS011;760;48.822;9.304;2022-07-21T12:02:09;4.23;;;3.93;;
1533;SDS011;760;48.822;9.304;2022-07-21T12:04:41;3.90;;;3.60;;
1533;SDS011;760;48.822;9.304;2022-07-21T12:07:19;6.50;;;5.90;;
1533;SDS011;760;48.822;9.304;2022-07-21T12:09:52;4.93;;;3.87;;
1533;SDS011;760;48.822;9.304;2022-07-21T12:17:45;4.10;;;3.70;;
1533;SDS011;760;48.822;9.304;2022-07-21T12:20:23;3.73;;;3.43;;
1533;SDS011;760;48.822;9.304;2022-07-21T12:22:50;4.23;;;3.83;;
1533;SDS011;760;48.822;9.304;2022-07-21T12:25:17;4.30;;;4.00;;
1533;SDS011;760;48.822;9.304;2022-07-21T12:27:54;4.00;;;3.70;;
1533;SDS011;760;48.822;9.304;2022-07-21T12:33:09;4.60;;;4.20;;
1533;SDS011;760;48.822;9.304;2022-07-21T12:35:43;6.37;;;5.77;;
1533;SDS011;760;48.822;9.304;2022-07-21T12:38:14;4.57;;;4.17;;
1533;SDS011;760;48.822;9.304;2022-07-21T12:40:47;4.83;;;4.43;;
1533;SDS011;760;48.822;9.304;2022-07-21T12:43:18;4.40;;;4.10;;
1533;SDS011;760;48.822;9.304;2022-07-21T12:48:22;5.03;;;4.40;;
1533;SDS011;760;48.822;9.304;2022-07-21T12:51:09;5.40;;;5.00;;
1533;SDS011;760;48.822;9.304;2022-07-21T12:53:37;5.47;;;5.07;;
1533;SDS011;760;48.822;9.304;2022-07-21T12:56:13;4.33;;;3.63;;
1533;SDS011;760;48.822;9.304;2022-07-21T12:58:41;5.40;;;4.90;;
1533;SDS011;760;48.822;9.304;2022-07-21T13:01:07;4.60;;;4.20;;
1533;SDS011;760;48.822;9.304;2022-07-21T13:03:33;5.87;;;5.37;;
1533;SDS011;760;48.822;9.304;2022-07-21T13:06:00;5.03;;;4.63;;
1533;SDS011;760;48.822;9.304;2022-07-21T13:08:26;5.30;;;4.90;;
1533;SDS011;760;48.822;9.304;2022-07-21T13:10:52;5.60;;;5.10;;
1533;SDS011;760;48.822;9.304;2022-07-21T13:13:18;6.03;;;5.63;;
1533;SDS011;760;48.822;9.304;2022-07-21T13:15:44;5.50;;;5.00;;
1533;SDS011;760;48.822;9.304;2022-07-21T13:18:10;4.87;;;4.47;;
1533;SDS011;760;48.822;9.304;2022-07-21T13:20:36;4.90;;;4.50;;
1533;SDS011;760;48.822;9.304;2022-07-21T13:23:01;6.30;;;5.70;;
1533;SDS011;760;48.822;9.304;2022-07-21T13:25:27;5.10;;;4.70;;
1533;SDS011;760;48.822;9.304;2022-07-21T13:27:53;5.50;;;5.10;;
1533;SDS011;760;48.822;9.304;2022-07-21T13:30:18;5.93;;;5.43;;
1533;SDS011;760;48.822;9.304;2022-07-21T13:32:44;6.17;;;5.60;;
1533;SDS011;760;48.822;9.304;2022-07-21T13:35:12;5.50;;;5.00;;
1533;SDS011;760;48.822;9.304;2022-07-21T13:37:38;6.40;;;5.13;;
1533;SDS011;760;48.822;9.304;2022-07-21T13:40:04;4.80;;;4.40;;
1533;SDS011;760;48.822;9.304;2022-07-21T13:42:30;5.90;;;5.37;;
1533;SDS011;760;48.822;9.304;2022-07-21T13:44:56;6.03;;;5.53;;
1533;SDS011;760;48.822;9.304;2022-07-21T13:47:21;5.07;;;4.57;;
1533;SDS011;760;48.822;9.304;2022-07-21T13:49:47;5.53;;;5.03;;
1533;SDS011;760;48.822;9.304;2022-07-21T13:52:13;5.40;;;4.90;;
1533;SDS011;760;48.822;9.304;2022-07-21T13:54:38;5.93;;;5.33;;
1533;SDS011;760;48.822;9.304;2022-07-21T13:57:04;5.27;;;4.77;;
1533;SDS011;760;48.822;9.304;2022-07-21T13:59:30;5.20;;;4.73;;
1533;SDS011;760;48.822;9.304;2022-07-21T14:01:56;5.20;;;4.23;;
1533;SDS011;760;48.822;9.304;2022-07-21T14:04:22;5.17;;;4.77;;
1533;SDS011;760;48.822;9.304;2022-07-21T14:06:48;5.20;;;4.70;;
1533;SDS011;760;48.822;9.304;2022-07-21T14:09:14;5.00;;;4.63;;
1533;SDS011;760;48.822;9.304;2022-07-21T14:11:40;4.93;;;4.53;;
1533;SDS011;760;48.822;9.304;2022-07-21T14:14:07;4.20;;;3.90;;
1533;SDS011;760;48.822;9.304;2022-07-21T14:16:33;4.33;;;4.03;;
1533;SDS011;760;48.822;9.304;2022-07-21T14:18:58;4.53;;;4.20;;
1533;SDS011;760;48.822;9.304;2022-07-21T14:21:25;5.33;;;4.30;;
1533;SDS011;760;48.822;9.304;2022-07-21T14:23:51;4.10;;;3.80;;
1533;SDS011;760;48.822;9.304;2022-07-21T14:26:37;4.13;;;3.73;;
1533;SDS011;760;48.822;9.304;2022-07-21T14:29:04;4.20;;;3.80;;
1533;SDS011;760;48.822;9.304;2022-07-21T14:31:31;3.60;;;3.30;;
1533;SDS011;760;48.822;9.304;2022-07-21T14:33:56;4.70;;;4.30;;
1533;SDS011;760;48.822;9.304;2022-07-21T14:36:22;4.73;;;4.33;;
1533;SDS011;760;48.822;9.304;2022-07-21T14:38:47;3.83;;;3.53;;
1533;SDS011;760;48.822;9.304;2022-07-21T14:41:13;4.80;;;4.40;;
1533;SDS011;760;48.822;9.304;2022-07-21T14:43:39;4.70;;;4.30;;
1533;SDS011;760;48.822;9.304;2022-07-21T14:46:04;3.93;;;3.63;;
1533;SDS011;760;48.822;9.304;2022-07-21T14:48:30;4.00;;;3.70;;
1533;SDS011;760;48.822;9.304;2022-07-21T14:50:55;4.43;;;4.03;;
1533;SDS011;760;48.822;9.304;2022-07-21T14:53:21;5.47;;;3.50;;
1533;SDS011;760;48.822;9.304;2022-07-21T14:55:47;9.93;;;3.67;;
1533;SDS011;760;48.822;9.304;2022-07-21T14:58:12;4.73;;;4.33;;
1533;SDS011;760;48.822;9.304;2022-07-21T15:00:38;4.20;;;3.90;;
1533;SDS011;760;48.822;9.304;2022-07-21T15:03:03;4.77;;;4.33;;
1533;SDS011;760;48.822;9.304;2022-07-21T15:05:29;4.47;;;3.77;;
1533;SDS011;760;48.822;9.304;2022-07-21T15:07:54;3.73;;;3.43;;
1533;SDS011;760;48.822;9.304;2022-07-21T15:10:20;4.73;;;4.33;;
1533;SDS011;760;48.822;9.304;2022-07-21T15:12:46;4.03;;;3.70;;
1533;SDS011;760;48.822;9.304;2022-07-21T15:15:12;3.67;;;3.37;;
1533;SDS011;760;48.822;9.304;2022-07-21T15:17:37;3.63;;;3.43;;
1533;SDS011;760;48.822;9.304;2022-07-21T15:20:03;3.23;;;3.03;;
1533;SDS011;760;48.822;9.304;2022-07-21T15:22:30;4.30;;;4.00;;
1533;SDS011;760;48.822;9.304;2022-07-21T15:24:57;4.50;;;4.10;;
1533;SDS011;760;48.822;9.304;2022-07-21T15:27:23;3.60;;;3.30;;
1533;SDS011;760;48.822;9.304;2022-07-21T15:29:49;3.97;;;3.60;;
1533;SDS011;760;48.822;9.304;2022-07-21T15:32:15;4.70;;;4.30;;
1533;SDS011;760;48.822;9.304;2022-07-21T15:34:40;3.80;;;3.60;;
1533;SDS011;760;48.822;9.304;2022-07-21T15:37:06;3.70;;;3.40;;
1533;SDS011;760;48.822;9.304;2022-07-21T15:39:31;3.93;;;3.70;;
1533;SDS011;760;48.822;9.304;2022-07-21T15:41:58;3.80;;;3.47;;
1533;SDS011;760;48.822;9.304;2022-07-21T15:44:24;3.30;;;3.10;;
1533;SDS011;760;48.822;9.304;2022-07-21T15:46:49;4.20;;;3.90;;
1533;SDS011;760;48.822;9.304;2022-07-21T15:49:16;4.00;;;3.70;;
1533;SDS011;760;48.822;9.304;2022-07-21T15:51:44;4.53;;;4.13;;
1533;SDS011;760;48.822;9.304;2022-07-21T15:54:10;4.00;;;3.50;;
1533;SDS011;760;48.822;9.304;2022-07-21T15:56:36;4.00;;;3.70;;
1533;SDS011;760;48.822;9.304;2022-07-21T15:59:02;3.10;;;2.90;;
1533;SDS011;760;48.822;9.304;2022-07-21T16:01:46;4.30;;;3.90;;
1533;SDS011;760;48.822;9.304;2022-07-21T16:04:11;4.37;;;3.97;;
1533;SDS011;760;48.822;9.304;2022-07-21T16:06:37;4.90;;;4.40;;
1533;SDS011;760;48.822;9.304;2022-07-21T16:09:03;4.80;;;4.30;;
1533;SDS011;760;48.822;9.304;2022-07-21T16:11:29;4.07;;;3.67;;
1533;SDS011;760;48.822;9.304;2022-07-21T16:13:55;3.40;;;3.10;;
1533;SDS011;760;48.822;9.304;2022-07-21T16:16:21;4.37;;;3.97;;
1533;SDS011;760;48.822;9.304;2022-07-21T16:18:47;4.03;;;3.63;;
1533;SDS011;760;48.822;9.304;2022-07-21T16:21:12;3.60;;;3.40;;
1533;SDS011;760;48.822;9.304;2022-07-21T16:23:38;3.60;;;3.30;;
1533;SDS011;760;48.822;9.304;2022-07-21T16:26:04;3.87;;;3.47;;
1533;SDS011;760;48.822;9.304;2022-07-21T16:28:29;3.40;;;3.07;;
1533;SDS011;760;48.822;9.304;2022-07-21T16:30:55;3.80;;;3.50;;
1533;SDS011;760;48.822;9.304;2022-07-21T16:33:21;4.07;;;3.70;;
1533;SDS011;760;48.822;9.304;2022-07-21T16:35:47;3.07;;;2.83;;
1533;SDS011;760;48.822;9.304;2022-07-21T16:38:12;3.20;;;3.00;;
1533;SDS011;760;48.822;9.304;2022-07-21T16:40:38;3.60;;;3.30;;
1533;SDS011;760;48.822;9.304;2022-07-21T16:43:04;3.50;;;3.20;;
1533;SDS011;760;48.822;9.304;2022-07-21T16:45:29;4.00;;;3.70;;
1533;SDS011;760;48.822;9.304;2022-07-21T16:47:55;3.83;;;3.53;;
1533;SDS011;760;48.822;9.304;2022-07-21T16:50:21;3.73;;;3.43;;
1533;SDS011;760;48.822;9.304;2022-07-21T16:52:46;3.87;;;3.53;;
1533;SDS011;760;48.822;9.304;2022-07-21T16:55:12;4.20;;;3.80;;
1533;SDS011;760;48.822;9.304;2022-07-21T16:57:38;3.23;;;3.03;;
1533;SDS011;760;48.822;9.304;2022-07-21T17:00:04;4.17;;;3.30;;
1533;SDS011;760;48.822;9.304;2022-07-21T17:02:31;3.73;;;3.43;;
1533;SDS011;760;48.822;9.304;2022-07-21T17:04:57;3.77;;;3.30;;
1533;SDS011;760;48.822;9.304;2022-07-21T17:07:23;4.20;;;3.90;;
1533;SDS011;760;48.822;9.304;2022-07-21T17:09:48;5.23;;;4.70;;
1533;SDS011;760;48.822;9.304;2022-07-21T17:12:14;3.50;;;3.20;;
1533;SDS011;760;48.822;9.304;2022-07-21T17:14:40;3.70;;;3.43;;
1533;SDS011;760;48.822;9.304;2022-07-21T17:17:05;3.60;;;3.30;;
1533;SDS011;760;48.822;9.304;2022-07-21T17:19:31;4.27;;;3.87;;
1533;SDS011;760;48.822;9.304;2022-07-21T17:21:57;3.00;;;2.80;;
1533;SDS011;760;48.822;9.304;2022-07-21T17:24:22;3.90;;;3.60;;
1533;SDS011;760;48.822;9.304;2022-07-21T17:26:48;3.60;;;3.40;;
1533;SDS011;760;48.822;9.304;2022-07-21T17:29:14;3.10;;;2.87;;
1533;SDS011;760;48.822;9.304;2022-07-21T17:31:39;3.77;;;3.47;;
1533;SDS011;760;48.822;9.304;2022-07-21T17:34:06;4.27;;;3.87;;
1533;SDS011;760;48.822;9.304;2022-07-21T17:36:32;3.80;;;3.50;;
1533;SDS011;760;48.822;9.304;2022-07-21T17:38:58;3.60;;;3.30;;
1533;SDS011;760;48.822;9.304;2022-07-21T17:41:23;3.40;;;3.10;;
1533;SDS011;760;48.822;9.304;2022-07-21T17:43:49;4.00;;;3.57;;
1533;SDS011;760;48.822;9.304;2022-07-21T17:46:15;3.60;;;3.30;;
1533;SDS011;760;48.822;9.304;2022-07-21T17:48:40;4.37;;;3.97;;
1533;SDS011;760;48.822;9.304;2022-07-21T17:51:06;3.33;;;3.13;;
1533;SDS011;760;48.822;9.304;2022-07-21T17:53:31;4.37;;;3.90;;
1533;SDS011;760;48.822;9.304;2022-07-21T17:55:57;3.60;;;3.13;;
1533;SDS011;760;48.822;9.304;2022-07-21T17:58:23;5.43;;;3.37;;
1533;SDS011;760;48.822;9.304;2022-07-21T18:01:07;3.33;;;3.03;;
1533;SDS011;760;48.822;9.304;2022-07-21T18:03:33;3.70;;;3.37;;
1533;SDS011;760;48.822;9.304;2022-07-21T18:05:59;4.03;;;3.73;;
1533;SDS011;760;48.822;9.304;2022-07-21T18:08:24;3.67;;;3.37;;
1533;SDS011;760;48.822;9.304;2022-07-21T18:10:50;3.90;;;3.60;;
1533;SDS011;760;48.822;9.304;2022-07-21T18:13:16;7.60;;;4.07;;
1533;SDS011;760;48.822;9.304;2022-07-21T18:15:41;3.83;;;3.63;;
1533;SDS011;760;48.822;9.304;2022-07-21T18:18:07;3.50;;;3.30;;
1533;SDS011;760;48.822;9.304;2022-07-21T18:20:33;2.97;;;2.77;;
1533;SDS011;760;48.822;9.304;2022-07-21T18:22:58;4.67;;;3.60;;
1533;SDS011;760;48.822;9.304;2022-07-21T18:25:24;4.30;;;3.53;;
1533;SDS011;760;48.822;9.304;2022-07-21T18:27:50;4.30;;;3.53;;
1533;SDS011;760;48.822;9.304;2022-07-21T18:30:16;5.03;;;3.73;;
1533;SDS011;760;48.822;9.304;2022-07-21T18:32:42;3.40;;;3.10;;
1533;SDS011;760;48.822;9.304;2022-07-21T18:35:08;3.90;;;3.60;;
1533;SDS011;760;48.822;9.304;2022-07-21T18:37:34;4.30;;;4.00;;
1533;SDS011;760;48.822;9.304;2022-07-21T18:40:00;4.20;;;3.90;;
1533;SDS011;760;48.822;9.304;2022-07-21T18:42:26;4.07;;;3.77;;
1533;SDS011;760;48.822;9.304;2022-07-21T18:44:52;3.97;;;3.57;;
1533;SDS011;760;48.822;9.304;2022-07-21T18:47:17;4.10;;;3.80;;
1533;SDS011;760;48.822;9.304;2022-07-21T18:49:43;4.40;;;4.00;;
1533;SDS011;760;48.822;9.304;2022-07-21T18:52:08;4.80;;;4.17;;
1533;SDS011;760;48.822;9.304;2022-07-21T18:54:34;4.07;;;3.67;;
1533;SDS011;760;48.822;9.304;2022-07-21T18:57:00;4.67;;;4.27;;
1533;SDS011;760;48.822;9.304;2022-07-21T18:59:25;5.13;;;4.70;;
1533;SDS011;760;48.822;9.304;2022-07-21T19:01:51;4.67;;;3.90;;
1533;SDS011;760;48.822;9.304;2022-07-21T19:04:16;3.80;;;3.33;;
1533;SDS011;760;48.822;9.304;2022-07-21T19:06:42;3.67;;;3.47;;
1533;SDS011;760;48.822;9.304;2022-07-21T19:09:08;3.33;;;3.03;;
1533;SDS011;760;48.822;9.304;2022-07-21T19:11:33;4.03;;;3.73;;
1533;SDS011;760;48.822;9.304;2022-07-21T19:13:59;5.20;;;4.20;;
1533;SDS011;760;48.822;9.304;2022-07-21T19:16:25;5.10;;;4.10;;
1533;SDS011;760;48.822;9.304;2022-07-21T19:18:50;3.90;;;3.60;;
1533;SDS011;760;48.822;9.304;2022-07-21T19:21:16;3.87;;;3.57;;
1533;SDS011;760;48.822;9.304;2022-07-21T19:23:41;4.23;;;3.83;;
1533;SDS011;760;48.822;9.304;2022-07-21T19:26:07;4.80;;;4.30;;
1533;SDS011;760;48.822;9.304;2022-07-21T19:28:33;6.60;;;4.43;;
1533;SDS011;760;48.822;9.304;2022-07-21T19:31:00;4.97;;;4.57;;
1533;SDS011;760;48.822;9.304;2022-07-21T19:33:27;5.30;;;4.20;;
1533;SDS011;760;48.822;9.304;2022-07-21T19:35:52;4.80;;;4.40;;
1533;SDS011;760;48.822;9.304;2022-07-21T19:38:18;5.67;;;5.13;;
1533;SDS011;760;48.822;9.304;2022-07-21T19:40:43;5.40;;;4.57;;
1533;SDS011;760;48.822;9.304;2022-07-21T19:43:09;6.10;;;5.50;;
1533;SDS011;760;48.822;9.304;2022-07-21T19:45:35;5.60;;;4.30;;
1533;SDS011;760;48.822;9.304;2022-07-21T19:48:02;6.10;;;5.60;;
1533;SDS011;760;48.822;9.304;2022-07-21T19:50:28;8.63;;;7.23;;
1533;SDS011;760;48.822;9.304;2022-07-21T19:52:54;6.17;;;5.57;;
1533;SDS011;760;48.822;9.304;2022-07-21T19:55:19;8.93;;;6.13;;
1533;SDS011;760;48.822;9.304;2022-07-21T19:57:45;7.90;;;6.20;;
1533;SDS011;760;48.822;9.304;2022-07-21T20:00:13;7.50;;;6.70;;
1533;SDS011;760;48.822;9.304;2022-07-21T20:02:41;7.40;;;6.23;;
1533;SDS011;760;48.822;9.304;2022-07-21T20:05:07;6.77;;;6.17;;
1533;SDS011;760;48.822;9.304;2022-07-21T20:07:34;6.33;;;5.73;;
1533;SDS011;760;48.822;9.304;2022-07-21T20:10:01;5.03;;;4.53;;
1533;SDS011;760;48.822;9.304;2022-07-21T20:12:28;4.80;;;4.30;;
1533;SDS011;760;48.822;9.304;2022-07-21T20:14:54;4.23;;;3.77;;